createdAt,value
2018-07-19T00:01:08.038Z,99.90
2018-07-19T00:03:36.220Z,99.90
2018-07-19T00:06:04.639Z,99.90
2018-07-19T00:08:33.048Z,99.90
2018-07-19T00:11:01.242Z,99.90
2018-07-19T00:13:29.545Z,99.90
2018-07-19T00:15:57.671Z,99.90
2018-07-19T00:18:26.278Z,99.90
2018-07-19T00:21:00.996Z,99.90
2018-07-19T00:23:29.603Z,99.90
2018-07-19T00:25:58.058Z,99.90
2018-07-19T00:28:26.212Z,99.90
2018-07-19T00:30:54.394Z,99.90
2018-07-19T00:33:22.868Z,99.90
2018-07-19T00:35:51.562Z,99.90
2018-07-19T00:38:19.737Z,99.90
2018-07-19T00:40:47.927Z,99.90
2018-07-19T00:43:16.210Z,99.90
2018-07-19T00:45:45.621Z,99.90
2018-07-19T00:48:13.801Z,99.90
2018-07-19T00:50:41.981Z,99.90
2018-07-19T00:53:10.200Z,99.90
2018-07-19T00:55:38.429Z,99.90
2018-07-19T00:58:06.653Z,99.90
2018-07-19T01:00:34.908Z,99.90
2018-07-19T01:03:03.146Z,99.90
2018-07-19T01:05:31.369Z,99.90
2018-07-19T01:07:59.649Z,99.90
2018-07-19T01:10:27.935Z,99.90
2018-07-19T01:12:56.131Z,99.90
2018-07-19T01:15:24.454Z,99.90
2018-07-19T01:17:52.621Z,99.90
2018-07-19T01:20:21.247Z,99.90
2018-07-19T01:22:49.405Z,99.90
2018-07-19T01:25:17.577Z,99.90
2018-07-19T01:27:45.744Z,99.90
2018-07-19T01:30:13.896Z,99.90
2018-07-19T01:32:42.070Z,99.90
2018-07-19T01:35:10.403Z,99.90
2018-07-19T01:37:38.582Z,99.90
2018-07-19T01:40:06.722Z,99.90
2018-07-19T01:42:37.258Z,99.90
2018-07-19T01:45:06.622Z,99.90
2018-07-19T01:47:34.777Z,99.90
2018-07-19T01:50:03.020Z,99.90
2018-07-19T01:52:31.206Z,99.90
2018-07-19T01:54:59.376Z,99.90
2018-07-19T01:57:27.581Z,99.90
2018-07-19T01:59:55.785Z,99.90
2018-07-19T02:02:24.041Z,99.90
2018-07-19T02:04:52.220Z,99.90
2018-07-19T02:07:20.475Z,99.90
2018-07-19T02:09:48.694Z,99.90
2018-07-19T02:12:16.881Z,99.90
2018-07-19T02:14:45.203Z,99.90
2018-07-19T02:17:13.485Z,99.90
2018-07-19T02:19:41.711Z,99.90
2018-07-19T02:22:09.843Z,99.90
2018-07-19T02:24:38.011Z,99.90
2018-07-19T02:27:07.136Z,99.90
2018-07-19T02:29:35.288Z,99.90
2018-07-19T02:32:03.909Z,99.90
2018-07-19T02:34:32.196Z,99.90
2018-07-19T02:37:00.359Z,99.90
2018-07-19T02:39:28.658Z,99.90
2018-07-19T02:41:56.951Z,99.90
2018-07-19T02:44:25.181Z,99.90
2018-07-19T02:46:53.446Z,99.90
2018-07-19T02:49:21.703Z,99.90
2018-07-19T02:51:49.936Z,99.90
2018-07-19T02:54:18.159Z,99.90
2018-07-19T02:56:46.422Z,99.90
2018-07-19T02:59:14.663Z,99.90
2018-07-19T03:01:42.874Z,99.90
2018-07-19T03:04:11.480Z,99.90
2018-07-19T03:06:39.620Z,99.90
2018-07-19T03:09:07.955Z,99.90
2018-07-19T03:11:36.272Z,99.90
2018-07-19T03:14:04.496Z,99.90
2018-07-19T03:16:32.789Z,99.90
2018-07-19T03:19:00.978Z,99.90
2018-07-19T03:21:29.235Z,99.90
2018-07-19T03:23:57.451Z,99.90
2018-07-19T03:26:25.769Z,99.90
2018-07-19T03:28:53.970Z,99.90
2018-07-19T03:31:22.259Z,99.90
2018-07-19T03:33:50.460Z,99.90
2018-07-19T03:36:18.703Z,99.90
2018-07-19T03:38:47.840Z,99.90
2018-07-19T03:41:16.028Z,99.90
2018-07-19T03:43:44.192Z,99.90
2018-07-19T03:46:12.362Z,99.90
2018-07-19T03:48:40.524Z,99.90
2018-07-19T03:51:08.741Z,99.90
2018-07-19T03:53:37.220Z,99.90
2018-07-19T03:56:06.561Z,99.90
2018-07-19T03:58:34.702Z,99.90
2018-07-19T04:01:02.892Z,99.90
2018-07-19T04:03:31.146Z,99.90
2018-07-19T04:05:59.426Z,99.90
2018-07-19T04:08:27.628Z,99.90
2018-07-19T04:10:55.839Z,99.90
2018-07-19T04:13:24.020Z,99.90
2018-07-19T04:15:52.252Z,96.40
2018-07-19T04:18:20.559Z,83.70
2018-07-19T04:20:48.749Z,71.10
2018-07-19T04:23:16.980Z,65.30
2018-07-19T04:25:45.235Z,59.70
2018-07-19T04:28:13.432Z,56.60
2018-07-19T04:30:41.691Z,54.00
2018-07-19T04:33:09.923Z,51.80
2018-07-19T04:35:38.162Z,49.50
2018-07-19T04:38:07.339Z,47.30
2018-07-19T04:40:35.693Z,45.60
2018-07-19T04:43:03.988Z,44.20
2018-07-19T04:45:32.228Z,42.80
2018-07-19T04:48:00.438Z,41.60
2018-07-19T04:50:28.767Z,40.40
2018-07-19T04:52:56.923Z,39.10
2018-07-19T04:55:25.189Z,38.00
2018-07-19T04:57:53.431Z,36.80
2018-07-19T05:00:21.708Z,36.10
2018-07-19T05:02:49.939Z,35.60
2018-07-19T05:05:18.234Z,34.70
2018-07-19T05:07:46.441Z,33.80
2018-07-19T05:10:14.896Z,33.10
2018-07-19T05:12:43.054Z,32.30
2018-07-19T05:15:11.228Z,31.50
2018-07-19T05:17:39.402Z,30.90
2018-07-19T05:20:07.610Z,30.10
2018-07-19T05:22:35.848Z,29.80
2018-07-19T05:25:04.206Z,29.50
2018-07-19T05:27:32.725Z,29.10
2018-07-19T05:30:00.908Z,29.00
2018-07-19T05:32:29.068Z,28.70
2018-07-19T05:34:57.290Z,28.50
2018-07-19T05:37:25.451Z,28.60
2018-07-19T05:39:53.593Z,28.60
2018-07-19T05:42:21.999Z,28.70
2018-07-19T05:44:50.141Z,28.60
2018-07-19T05:47:18.401Z,28.00
2018-07-19T05:49:46.689Z,27.80
2018-07-19T05:52:14.889Z,27.50
2018-07-19T05:54:43.603Z,27.50
2018-07-19T05:57:11.851Z,27.20
2018-07-19T05:59:40.027Z,27.10
2018-07-19T06:02:08.239Z,27.40
2018-07-19T06:04:36.505Z,27.30
2018-07-19T06:07:04.731Z,27.40
2018-07-19T06:09:32.948Z,27.70
2018-07-19T06:12:01.084Z,28.10
2018-07-19T06:14:29.509Z,27.60
2018-07-19T06:16:57.801Z,27.50
2018-07-19T06:19:25.989Z,27.00
2018-07-19T06:21:54.223Z,26.80
2018-07-19T06:24:22.431Z,26.10
2018-07-19T06:26:50.643Z,26.20
2018-07-19T06:29:18.860Z,26.30
2018-07-19T06:31:47.072Z,25.80
2018-07-19T06:34:15.239Z,25.60
2018-07-19T06:36:43.478Z,25.70
2018-07-19T06:39:11.691Z,25.70
2018-07-19T06:41:39.864Z,25.60
2018-07-19T06:44:08.247Z,25.30
2018-07-19T06:46:36.499Z,25.00
2018-07-19T06:49:04.693Z,25.60
2018-07-19T06:51:32.956Z,26.70
2018-07-19T06:54:01.213Z,28.60
2018-07-19T06:56:29.433Z,31.60
2018-07-19T06:58:57.625Z,33.80
2018-07-19T07:01:25.831Z,35.70
2018-07-19T07:03:54.158Z,36.40
2018-07-19T07:06:22.398Z,37.60
2018-07-19T07:08:50.611Z,39.70
2018-07-19T07:11:18.766Z,40.60
2018-07-19T07:13:46.920Z,41.10
2018-07-19T07:16:15.232Z,42.20
2018-07-19T07:18:43.503Z,42.70
2018-07-19T07:21:11.725Z,43.80
2018-07-19T07:23:39.956Z,44.60
2018-07-19T07:26:08.214Z,45.40
2018-07-19T07:28:39.988Z,45.70
2018-07-19T07:31:08.243Z,46.10
2018-07-19T07:33:36.405Z,46.00
2018-07-19T07:36:04.602Z,46.30
2018-07-19T07:38:32.755Z,45.40
2018-07-19T07:41:00.955Z,43.90
2018-07-19T07:43:29.676Z,41.90
2018-07-19T07:45:57.890Z,40.80
2018-07-19T07:48:26.219Z,40.60
2018-07-19T07:50:54.448Z,41.00
2018-07-19T07:53:22.727Z,42.10
2018-07-19T07:55:51.145Z,43.10
2018-07-19T07:58:19.408Z,44.70
2018-07-19T08:00:47.638Z,46.00
2018-07-19T08:03:15.896Z,48.00
2018-07-19T08:05:44.180Z,49.80
2018-07-19T08:08:12.408Z,51.20
2018-07-19T08:10:40.700Z,51.40
2018-07-19T08:13:08.940Z,51.60
2018-07-19T08:15:37.381Z,51.80
2018-07-19T08:18:05.394Z,51.40
2018-07-19T08:20:33.657Z,50.70
2018-07-19T08:23:01.939Z,50.40
2018-07-19T08:25:30.152Z,50.20
2018-07-19T08:27:58.345Z,51.10
2018-07-19T08:30:26.629Z,51.30
2018-07-19T08:32:55.026Z,52.30
2018-07-19T08:35:23.208Z,53.60
2018-07-19T08:37:51.432Z,54.60
2018-07-19T08:40:19.680Z,54.60
2018-07-19T08:42:47.980Z,54.80
2018-07-19T08:45:16.234Z,54.70
2018-07-19T08:47:44.531Z,54.40
2018-07-19T08:50:12.772Z,54.60
2018-07-19T08:52:41.011Z,55.90
2018-07-19T08:55:09.405Z,56.90
2018-07-19T08:57:37.773Z,57.30
2018-07-19T09:00:06.047Z,57.50
2018-07-19T09:02:35.006Z,58.40
2018-07-19T09:05:03.238Z,59.00
2018-07-19T09:07:31.533Z,59.50
2018-07-19T09:09:59.795Z,60.20
2018-07-19T09:12:28.024Z,60.50
2018-07-19T09:14:56.466Z,61.10
2018-07-19T09:17:24.673Z,61.10
2018-07-19T09:19:52.904Z,60.00
2018-07-19T09:22:21.869Z,59.10
2018-07-19T09:24:50.119Z,58.10
2018-07-19T09:27:18.487Z,57.10
2018-07-19T09:29:46.724Z,56.50
2018-07-19T09:32:15.246Z,55.60
2018-07-19T09:34:43.498Z,55.40
2018-07-19T09:37:11.753Z,55.20
2018-07-19T09:39:40.044Z,55.20
2018-07-19T09:42:08.554Z,55.00
2018-07-19T09:44:36.822Z,54.80
2018-07-19T09:47:05.117Z,55.50
2018-07-19T09:49:33.581Z,55.10
2018-07-19T09:52:01.857Z,54.90
2018-07-19T09:54:41.529Z,55.00
2018-07-19T09:57:09.934Z,54.80
2018-07-19T09:59:38.171Z,54.70
2018-07-19T10:02:06.498Z,54.60
2018-07-19T10:04:34.721Z,54.50
2018-07-19T10:07:02.974Z,54.30
2018-07-19T10:09:31.226Z,54.80
2018-07-19T10:11:59.490Z,54.70
2018-07-19T10:14:27.711Z,54.50
2018-07-19T10:16:56.009Z,53.50
2018-07-19T10:19:24.213Z,53.60
2018-07-19T10:21:52.629Z,53.80
2018-07-19T10:24:21.015Z,53.60
2018-07-19T10:26:50.047Z,53.80
2018-07-19T10:29:18.254Z,54.20
2018-07-19T10:31:46.559Z,54.50
2018-07-19T10:34:15.225Z,54.50
2018-07-19T10:36:43.455Z,54.90
2018-07-19T10:39:13.329Z,54.90
2018-07-19T10:41:41.911Z,55.50
2018-07-19T10:44:10.630Z,56.00
2018-07-19T10:46:38.953Z,56.30
2018-07-19T10:49:07.189Z,56.30
2018-07-19T10:51:36.620Z,56.10
2018-07-19T10:54:04.780Z,56.30
2018-07-19T10:56:33.034Z,55.70
2018-07-19T10:59:01.770Z,54.60
2018-07-19T11:01:30.227Z,53.20
2018-07-19T11:03:58.591Z,52.80
2018-07-19T11:06:26.914Z,51.60
2018-07-19T11:08:55.161Z,51.50
2018-07-19T11:11:23.789Z,51.10
2018-07-19T11:13:52.130Z,50.70
2018-07-19T11:16:20.854Z,51.20
2018-07-19T11:18:49.121Z,52.10
2018-07-19T11:21:17.418Z,53.10
2018-07-19T11:23:45.607Z,53.40
2018-07-19T11:26:13.818Z,53.70
2018-07-19T11:28:42.075Z,54.10
2018-07-19T11:31:10.280Z,54.50
2018-07-19T11:33:38.500Z,55.00
2018-07-19T11:36:06.733Z,55.10
2018-07-19T11:38:35.575Z,55.10
2018-07-19T11:41:03.998Z,55.50
2018-07-19T11:43:32.312Z,55.40
2018-07-19T11:46:00.647Z,55.10
2018-07-19T11:48:28.898Z,54.60
2018-07-19T11:50:57.160Z,54.40
2018-07-19T11:53:25.387Z,53.20
2018-07-19T11:55:53.661Z,53.70
2018-07-19T11:58:22.021Z,53.80
2018-07-19T12:00:50.574Z,52.20
2018-07-19T12:03:18.876Z,51.70
2018-07-19T12:05:47.097Z,51.50
2018-07-19T12:08:15.355Z,50.80
2018-07-19T12:10:43.613Z,50.60
2018-07-19T12:13:11.816Z,49.40
2018-07-19T12:15:40.048Z,48.90
2018-07-19T12:18:08.302Z,48.20
2018-07-19T12:20:36.906Z,47.90
2018-07-19T12:23:05.109Z,46.90
2018-07-19T12:25:33.368Z,46.90
2018-07-19T12:28:02.156Z,47.20
2018-07-19T12:30:30.888Z,46.10
2018-07-19T12:32:59.120Z,45.40
2018-07-19T12:35:27.362Z,45.50
2018-07-19T12:37:55.584Z,45.20
2018-07-19T12:40:23.837Z,46.50
2018-07-19T12:42:52.480Z,46.50
2018-07-19T12:45:20.789Z,47.60
2018-07-19T12:47:49.200Z,47.40
2018-07-19T12:50:17.392Z,48.70
2018-07-19T12:52:45.707Z,49.00
2018-07-19T12:55:14.021Z,49.90
2018-07-19T12:57:42.256Z,49.40
2018-07-19T13:00:10.493Z,49.30
2018-07-19T13:02:38.775Z,48.80
2018-07-19T13:05:07.042Z,48.50
2018-07-19T13:07:35.348Z,48.60
2018-07-19T13:10:03.669Z,48.80
2018-07-19T13:12:32.321Z,49.10
2018-07-19T13:15:00.645Z,49.00
2018-07-19T13:17:29.187Z,48.10
2018-07-19T13:19:57.458Z,48.10
2018-07-19T13:22:26.328Z,47.90
2018-07-19T13:24:54.698Z,47.10
2018-07-19T13:27:22.872Z,47.60
2018-07-19T13:29:51.090Z,47.20
2018-07-19T13:32:19.342Z,47.90
2018-07-19T13:34:47.528Z,47.90
2018-07-19T13:37:15.681Z,47.20
2018-07-19T13:39:43.899Z,46.90
2018-07-19T13:42:12.109Z,46.30
2018-07-19T13:44:40.379Z,45.20
2018-07-19T13:47:09.901Z,45.30
2018-07-19T13:49:38.196Z,44.80
2018-07-19T13:52:06.593Z,44.30
2018-07-19T13:54:44.192Z,44.30
2018-07-19T13:57:12.428Z,43.90
2018-07-19T13:59:41.941Z,42.90
2018-07-19T14:02:10.741Z,43.50
2018-07-19T14:04:39.027Z,43.90
2018-07-19T14:07:07.228Z,43.90
2018-07-19T14:09:35.496Z,42.90
2018-07-19T14:12:04.441Z,42.50
2018-07-19T14:14:32.941Z,42.20
2018-07-19T14:17:01.345Z,42.00
2018-07-19T14:19:29.661Z,41.80
2018-07-19T14:21:58.432Z,42.00
2018-07-19T14:24:26.726Z,41.10
2018-07-19T14:26:55.482Z,40.90
2018-07-19T14:29:23.793Z,41.40
2018-07-19T14:31:52.154Z,41.90
2018-07-19T14:34:20.449Z,42.50
2018-07-19T14:36:48.718Z,42.80
2018-07-19T14:39:17.003Z,42.60
2018-07-19T14:41:45.515Z,42.60
2018-07-19T14:44:13.916Z,42.60
2018-07-19T14:46:42.273Z,42.70
2018-07-19T14:49:10.665Z,42.70
2018-07-19T14:51:38.966Z,42.60
2018-07-19T14:54:07.713Z,42.70
2018-07-19T14:56:36.581Z,42.60
2018-07-19T14:59:04.822Z,42.20
2018-07-19T15:01:33.677Z,42.10
2018-07-19T15:04:02.032Z,42.30
2018-07-19T15:06:30.508Z,42.70
2018-07-19T15:08:58.811Z,43.20
2018-07-19T15:11:27.071Z,43.70
2018-07-19T15:13:55.544Z,43.90
2018-07-19T15:16:23.871Z,44.10
2018-07-19T15:18:52.213Z,44.20
2018-07-19T15:21:20.548Z,44.70
2018-07-19T15:23:48.908Z,44.30
2018-07-19T15:26:17.256Z,44.60
2018-07-19T15:28:45.689Z,45.00
2018-07-19T15:31:13.913Z,45.20
2018-07-19T15:33:42.373Z,45.20
2018-07-19T15:36:10.807Z,45.90
2018-07-19T15:38:39.029Z,45.70
2018-07-19T15:41:07.379Z,46.30
2018-07-19T15:43:37.241Z,46.40
2018-07-19T15:46:05.481Z,46.40
2018-07-19T15:48:33.726Z,46.30
2018-07-19T15:51:01.953Z,46.10
2018-07-19T15:53:31.132Z,46.10
2018-07-19T15:55:59.396Z,46.50
2018-07-19T15:58:27.581Z,45.70
2018-07-19T16:00:56.406Z,45.70
2018-07-19T16:03:24.745Z,45.50
2018-07-19T16:05:53.825Z,45.10
2018-07-19T16:08:22.907Z,45.20
2018-07-19T16:10:51.104Z,43.70
2018-07-19T16:13:19.415Z,44.00
2018-07-19T16:15:47.554Z,43.60
2018-07-19T16:18:15.983Z,43.00
2018-07-19T16:20:44.434Z,42.50
2018-07-19T16:23:13.437Z,41.60
2018-07-19T16:25:42.541Z,41.90
2018-07-19T16:28:10.779Z,42.40
2018-07-19T16:30:39.027Z,42.40
2018-07-19T16:33:07.274Z,43.00
2018-07-19T16:35:35.584Z,42.20
2018-07-19T16:38:03.914Z,41.50
2018-07-19T16:40:32.319Z,42.00
2018-07-19T16:43:00.626Z,41.90
2018-07-19T16:45:30.383Z,41.80
2018-07-19T16:47:58.880Z,42.20
2018-07-19T16:50:27.497Z,42.70
2018-07-19T16:52:55.835Z,42.50
2018-07-19T16:55:24.153Z,42.70
2018-07-19T16:57:52.383Z,43.00
2018-07-19T17:00:21.423Z,42.00
2018-07-19T17:02:51.036Z,43.00
2018-07-19T17:05:19.410Z,42.60
2018-07-19T17:07:47.725Z,42.50
2018-07-19T17:10:15.957Z,42.60
2018-07-19T17:12:44.199Z,42.70
2018-07-19T17:15:12.418Z,42.90
2018-07-19T17:17:41.807Z,42.90
2018-07-19T17:20:09.985Z,43.10
2018-07-19T17:22:38.602Z,43.20
2018-07-19T17:25:06.984Z,43.30
2018-07-19T17:27:35.201Z,43.30
2018-07-19T17:30:03.443Z,43.50
2018-07-19T17:32:31.672Z,43.40
2018-07-19T17:34:59.893Z,43.50
2018-07-19T17:37:28.124Z,43.80
2018-07-19T17:39:57.209Z,43.90
2018-07-19T17:42:25.506Z,44.00
2018-07-19T17:47:28.338Z,44.60
2018-07-19T17:49:56.562Z,45.10
2018-07-19T17:52:24.777Z,44.90
2018-07-19T17:54:53.009Z,45.40
2018-07-19T17:57:21.340Z,45.30
2018-07-19T17:59:49.593Z,45.10
2018-07-19T18:02:17.788Z,45.40
2018-07-19T18:04:45.983Z,45.10
2018-07-19T18:07:14.244Z,45.80
2018-07-19T18:09:42.380Z,45.90
2018-07-19T18:12:10.954Z,45.10
2018-07-19T18:14:39.208Z,45.80
2018-07-19T18:17:07.452Z,45.40
2018-07-19T18:19:35.691Z,46.10
2018-07-19T18:22:03.920Z,45.90
2018-07-19T18:24:32.213Z,46.30
2018-07-19T18:27:00.512Z,45.50
2018-07-19T18:29:28.695Z,46.00
2018-07-19T18:31:56.908Z,45.80
2018-07-19T18:34:25.213Z,46.20
2018-07-19T18:36:53.425Z,45.80
2018-07-19T18:39:21.683Z,46.30
2018-07-19T18:41:49.924Z,46.10
2018-07-19T18:44:18.163Z,46.70
2018-07-19T18:46:46.445Z,47.10
2018-07-19T18:49:14.708Z,47.30
2018-07-19T18:51:42.925Z,47.20
2018-07-19T18:54:11.204Z,47.30
2018-07-19T18:56:39.503Z,47.40
2018-07-19T18:59:07.683Z,47.70
2018-07-19T19:01:35.885Z,47.60
2018-07-19T19:04:04.330Z,48.20
2018-07-19T19:06:32.550Z,48.00
2018-07-19T19:09:00.702Z,48.30
2018-07-19T19:11:28.904Z,48.40
2018-07-19T19:13:57.087Z,48.80
2018-07-19T19:16:25.455Z,49.20
2018-07-19T19:18:53.710Z,49.30
2018-07-19T19:21:22.088Z,50.40
2018-07-19T19:23:50.428Z,49.30
2018-07-19T19:26:19.150Z,50.20
2018-07-19T19:28:47.478Z,49.80
2018-07-19T19:31:16.028Z,50.60
2018-07-19T19:33:44.299Z,50.60
2018-07-19T19:36:12.551Z,50.90
2018-07-19T19:38:40.838Z,51.20
2018-07-19T19:41:14.955Z,51.20
2018-07-19T19:43:45.310Z,51.20
2018-07-19T19:46:14.003Z,51.80
2018-07-19T19:48:42.407Z,52.00
2018-07-19T19:51:10.653Z,51.90
2018-07-19T19:53:38.978Z,52.20
2018-07-19T19:56:07.295Z,53.00
2018-07-19T19:58:35.556Z,52.90
2018-07-19T20:01:03.726Z,53.20
2018-07-19T20:03:31.880Z,53.50
2018-07-19T20:06:00.207Z,53.80
2018-07-19T20:08:28.709Z,52.90
2018-07-19T20:10:56.985Z,53.00
2018-07-19T20:13:25.468Z,52.90
2018-07-19T20:15:54.090Z,53.20
2018-07-19T20:18:22.831Z,53.90
2018-07-19T20:20:51.554Z,53.40
2018-07-19T20:23:19.895Z,53.30
2018-07-19T20:25:48.465Z,54.10
2018-07-19T20:28:16.837Z,53.00
2018-07-19T20:30:45.143Z,53.10
2018-07-19T20:33:13.365Z,53.30
2018-07-19T20:35:42.029Z,53.50
2018-07-19T20:38:10.284Z,53.30
2018-07-19T20:40:38.506Z,52.70
2018-07-19T20:43:06.801Z,53.00
2018-07-19T20:45:35.144Z,52.80
2018-07-19T20:48:03.413Z,52.70
2018-07-19T20:50:31.761Z,53.00
2018-07-19T20:52:59.972Z,53.50
2018-07-19T20:55:28.196Z,52.50
2018-07-19T20:57:56.364Z,52.30
2018-07-19T21:00:24.551Z,52.40
2018-07-19T21:02:52.844Z,52.40
2018-07-19T21:05:21.650Z,52.30
2018-07-19T21:07:49.925Z,52.10
2018-07-19T21:10:18.244Z,52.50
2018-07-19T21:12:46.585Z,52.90
2018-07-19T21:15:14.898Z,52.70
2018-07-19T21:17:43.124Z,53.20
2018-07-19T21:20:11.424Z,53.10
2018-07-19T21:22:39.630Z,53.00
2018-07-19T21:25:07.870Z,53.00
2018-07-19T21:27:36.078Z,53.10
2018-07-19T21:30:05.208Z,53.10
2018-07-19T21:32:33.424Z,52.70
2018-07-19T21:35:01.657Z,53.00
2018-07-19T21:37:29.950Z,53.40
2018-07-19T21:39:58.247Z,53.40
2018-07-19T21:42:26.488Z,53.60
2018-07-19T21:44:55.277Z,53.60
2018-07-19T21:47:23.689Z,54.20
2018-07-19T21:49:52.353Z,54.00
2018-07-19T21:52:20.621Z,53.80
2018-07-19T21:54:48.802Z,54.50
2018-07-19T21:57:17.036Z,54.40
2018-07-19T21:59:45.403Z,54.20
2018-07-19T22:02:14.507Z,53.90
2018-07-19T22:04:42.885Z,53.90
2018-07-19T22:07:11.099Z,53.70
2018-07-19T22:09:39.266Z,53.90
2018-07-19T22:12:07.504Z,53.40
2018-07-19T22:14:35.802Z,54.00
2018-07-19T22:17:04.057Z,53.80
2018-07-19T22:19:32.240Z,54.10
2018-07-19T22:22:01.127Z,54.40
2018-07-19T22:24:29.318Z,54.70
2018-07-19T22:26:57.843Z,54.80
2018-07-19T22:29:26.100Z,54.80
2018-07-19T22:31:55.083Z,56.10
2018-07-19T22:34:23.698Z,57.00
2018-07-19T22:36:51.908Z,56.80
2018-07-19T22:39:20.178Z,56.40
2018-07-19T22:41:48.372Z,58.10
2018-07-19T22:44:16.654Z,58.30
2018-07-19T22:46:44.925Z,59.40
2018-07-19T22:49:13.157Z,59.20
2018-07-19T22:51:41.470Z,61.60
2018-07-19T22:54:09.673Z,63.50
2018-07-19T22:56:38.006Z,64.30
2018-07-19T22:59:06.217Z,65.50
2018-07-19T23:01:34.417Z,66.20
2018-07-19T23:04:02.874Z,66.20
2018-07-19T23:06:31.127Z,69.10
2018-07-19T23:08:59.328Z,70.40
2018-07-19T23:11:27.767Z,71.90
2018-07-19T23:13:56.019Z,72.40
2018-07-19T23:16:26.081Z,74.60
2018-07-19T23:18:54.430Z,75.60
2018-07-19T23:21:22.731Z,77.00
2018-07-19T23:23:50.881Z,77.10
2018-07-19T23:26:19.215Z,78.30
2018-07-19T23:28:47.391Z,79.20
2018-07-19T23:31:16.322Z,78.60
2018-07-19T23:33:44.510Z,80.50
2018-07-19T23:36:18.382Z,81.50
2018-07-19T23:40:55.008Z,83.40
2018-07-19T23:43:26.908Z,83.90
2018-07-19T23:46:27.172Z,87.00
2018-07-19T23:48:56.871Z,87.50
2018-07-19T23:51:25.059Z,88.60
2018-07-19T23:53:53.241Z,90.30
2018-07-19T23:56:21.467Z,91.30
2018-07-19T23:58:49.568Z,91.20
